sensor_id;sensor_type;location;lat;lon;timestamp;pressure;altitude;pressure_sealevel;temperature;humidity
77086;BME280;66014;53.134;18.006;2023-03-21T00:00:57;100955.02;;;8.72;75.27
77086;BME280;66014;53.134;18.006;2023-03-21T00:03:25;100955.81;;;8.70;75.35
77086;BME280;66014;53.134;18.006;2023-03-21T00:05:52;100954.11;;;8.67;75.51
77086;BME280;66014;53.134;18.006;2023-03-21T00:08:21;100951.55;;;8.65;75.62
77086;BME280;66014;53.134;18.006;2023-03-21T00:10:58;100950.70;;;8.63;75.71
77086;BME280;66014;53.134;18.006;2023-03-21T00:13:27;100949.61;;;8.63;75.80
77086;BME280;66014;53.134;18.006;2023-03-21T00:16:11;100944.85;;;8.63;75.91
77086;BME280;66014;53.134;18.006;2023-03-21T00:18:44;100947.23;;;8.64;75.77
77086;BME280;66014;53.134;18.006;2023-03-21T00:21:14;100950.17;;;8.64;75.75
77086;BME280;66014;53.134;18.006;2023-03-21T00:23:43;100946.39;;;8.67;75.81
77086;BME280;66014;53.134;18.006;2023-03-21T00:26:12;100947.83;;;8.68;75.77
77086;BME280;66014;53.134;18.006;2023-03-21T00:28:41;100946.52;;;8.67;75.67
77086;BME280;66014;53.134;18.006;2023-03-21T00:31:08;100944.33;;;8.66;75.75
77086;BME280;66014;53.134;18.006;2023-03-21T00:33:36;100942.02;;;8.65;75.78
77086;BME280;66014;53.134;18.006;2023-03-21T00:36:05;100942.88;;;8.65;75.98
77086;BME280;66014;53.134;18.006;2023-03-21T00:38:34;100939.08;;;8.64;75.98
77086;BME280;66014;53.134;18.006;2023-03-21T00:41:06;100941.59;;;8.67;75.84
77086;BME280;66014;53.134;18.006;2023-03-21T00:43:32;100940.09;;;8.69;75.75
77086;BME280;66014;53.134;18.006;2023-03-21T00:45:59;100934.71;;;8.72;75.84
77086;BME280;66014;53.134;18.006;2023-03-21T00:48:26;100936.98;;;8.74;75.85
77086;BME280;66014;53.134;18.006;2023-03-21T00:50:54;100933.91;;;8.78;75.89
77086;BME280;66014;53.134;18.006;2023-03-21T00:53:23;100937.06;;;8.80;75.87
77086;BME280;66014;53.134;18.006;2023-03-21T00:55:50;100941.81;;;8.80;75.76
77086;BME280;66014;53.134;18.006;2023-03-21T00:58:17;100939.95;;;8.79;75.88
77086;BME280;66014;53.134;18.006;2023-03-21T01:00:44;100942.70;;;8.80;75.97
77086;BME280;66014;53.134;18.006;2023-03-21T01:03:14;100940.22;;;8.82;76.03
77086;BME280;66014;53.134;18.006;2023-03-21T01:05:46;100940.82;;;8.82;76.12
77086;BME280;66014;53.134;18.006;2023-03-21T01:08:36;100937.91;;;8.83;76.23
77086;BME280;66014;53.134;18.006;2023-03-21T01:11:06;100935.59;;;8.84;76.29
77086;BME280;66014;53.134;18.006;2023-03-21T01:13:34;100935.55;;;8.82;76.36
77086;BME280;66014;53.134;18.006;2023-03-21T01:16:00;100935.23;;;8.80;76.43
77086;BME280;66014;53.134;18.006;2023-03-21T01:18:29;100933.97;;;8.77;76.52
77086;BME280;66014;53.134;18.006;2023-03-21T01:20:58;100933.30;;;8.72;76.58
77086;BME280;66014;53.134;18.006;2023-03-21T01:23:27;100932.63;;;8.66;76.73
77086;BME280;66014;53.134;18.006;2023-03-21T01:25:54;100932.77;;;8.62;76.90
77086;BME280;66014;53.134;18.006;2023-03-21T01:28:24;100930.23;;;8.59;77.13
77086;BME280;66014;53.134;18.006;2023-03-21T01:30:52;100930.68;;;8.56;77.20
77086;BME280;66014;53.134;18.006;2023-03-21T01:33:20;100928.59;;;8.52;77.36
77086;BME280;66014;53.134;18.006;2023-03-21T01:35:48;100924.17;;;8.51;77.53
77086;BME280;66014;53.134;18.006;2023-03-21T01:38:15;100922.63;;;8.49;77.61
77086;BME280;66014;53.134;18.006;2023-03-21T01:40:44;100923.98;;;8.46;77.75
77086;BME280;66014;53.134;18.006;2023-03-21T01:43:24;100923.00;;;8.45;77.90
77086;BME280;66014;53.134;18.006;2023-03-21T01:49:00;100923.11;;;8.46;77.97
77086;BME280;66014;53.134;18.006;2023-03-21T01:51:29;100924.80;;;8.48;77.94
77086;BME280;66014;53.134;18.006;2023-03-21T01:53:58;100927.17;;;8.48;77.99
77086;BME280;66014;53.134;18.006;2023-03-21T01:56:35;100927.16;;;8.48;78.14
77086;BME280;66014;53.134;18.006;2023-03-21T01:59:11;100928.09;;;8.47;78.08
77086;BME280;66014;53.134;18.006;2023-03-21T02:01:39;100927.77;;;8.45;78.18
77086;BME280;66014;53.134;18.006;2023-03-21T02:04:08;100931.67;;;8.45;78.20
77086;BME280;66014;53.134;18.006;2023-03-21T02:06:57;100930.73;;;8.44;78.08
77086;BME280;66014;53.134;18.006;2023-03-21T02:09:28;100933.98;;;8.45;78.11
77086;BME280;66014;53.134;18.006;2023-03-21T02:11:58;100930.50;;;8.45;78.16
77086;BME280;66014;53.134;18.006;2023-03-21T02:14:26;100935.98;;;8.43;78.25
77086;BME280;66014;53.134;18.006;2023-03-21T02:22:40;100930.20;;;8.39;78.17
77086;BME280;66014;53.134;18.006;2023-03-21T02:25:24;100933.62;;;8.38;78.29
77086;BME280;66014;53.134;18.006;2023-03-21T02:34:11;100928.26;;;8.35;78.44
77086;BME280;66014;53.134;18.006;2023-03-21T02:37:01;100931.02;;;8.36;78.29
77086;BME280;66014;53.134;18.006;2023-03-21T02:39:55;100930.25;;;8.35;78.36
77086;BME280;66014;53.134;18.006;2023-03-21T02:45:26;100928.83;;;8.37;78.29
77086;BME280;66014;53.134;18.006;2023-03-21T02:48:04;100928.45;;;8.35;78.22
77086;BME280;66014;53.134;18.006;2023-03-21T02:50:42;100926.54;;;8.35;78.20
77086;BME280;66014;53.134;18.006;2023-03-21T02:53:15;100927.64;;;8.33;78.21
77086;BME280;66014;53.134;18.006;2023-03-21T02:55:43;100924.13;;;8.31;78.18
77086;BME280;66014;53.134;18.006;2023-03-21T02:58:14;100917.89;;;8.30;78.14
77086;BME280;66014;53.134;18.006;2023-03-21T03:00:42;100922.65;;;8.28;78.17
77086;BME280;66014;53.134;18.006;2023-03-21T03:03:11;100925.43;;;8.27;78.10
77086;BME280;66014;53.134;18.006;2023-03-21T03:05:47;100927.00;;;8.29;78.07
77086;BME280;66014;53.134;18.006;2023-03-21T03:14:00;100928.16;;;8.30;77.83
77086;BME280;66014;53.134;18.006;2023-03-21T03:16:58;100933.67;;;8.28;77.74
77086;BME280;66014;53.134;18.006;2023-03-21T03:19:31;100934.88;;;8.25;77.73
77086;BME280;66014;53.134;18.006;2023-03-21T03:22:08;100934.44;;;8.22;77.77
77086;BME280;66014;53.134;18.006;2023-03-21T03:24:38;100932.73;;;8.21;77.76
77086;BME280;66014;53.134;18.006;2023-03-21T03:27:10;100940.02;;;8.23;77.71
77086;BME280;66014;53.134;18.006;2023-03-21T03:29:43;100939.91;;;8.24;77.76
77086;BME280;66014;53.134;18.006;2023-03-21T03:34:45;100934.02;;;8.23;77.77
77086;BME280;66014;53.134;18.006;2023-03-21T03:37:18;100935.17;;;8.23;77.80
77086;BME280;66014;53.134;18.006;2023-03-21T03:39:53;100936.20;;;8.27;77.59
77086;BME280;66014;53.134;18.006;2023-03-21T03:42:51;100932.84;;;8.31;77.49
77086;BME280;66014;53.134;18.006;2023-03-21T03:45:16;100928.61;;;8.34;77.35
77086;BME280;66014;53.134;18.006;2023-03-21T03:47:48;100929.00;;;8.33;77.34
77086;BME280;66014;53.134;18.006;2023-03-21T03:50:26;100928.10;;;8.32;77.30
77086;BME280;66014;53.134;18.006;2023-03-21T03:53:02;100929.65;;;8.30;77.21
77086;BME280;66014;53.134;18.006;2023-03-21T03:55:32;100934.44;;;8.27;77.13
77086;BME280;66014;53.134;18.006;2023-03-21T03:58:00;100934.40;;;8.26;77.10
77086;BME280;66014;53.134;18.006;2023-03-21T04:00:32;100939.09;;;8.25;77.15
77086;BME280;66014;53.134;18.006;2023-03-21T04:02:59;100936.33;;;8.22;77.15
77086;BME280;66014;53.134;18.006;2023-03-21T04:05:26;100938.81;;;8.20;77.21
77086;BME280;66014;53.134;18.006;2023-03-21T04:07:54;100936.25;;;8.18;77.20
77086;BME280;66014;53.134;18.006;2023-03-21T04:10:20;100940.70;;;8.14;77.30
77086;BME280;66014;53.134;18.006;2023-03-21T04:12:48;100936.92;;;8.09;77.34
77086;BME280;66014;53.134;18.006;2023-03-21T04:15:15;100939.45;;;8.06;77.37
77086;BME280;66014;53.134;18.006;2023-03-21T04:17:42;100936.77;;;8.01;77.44
77086;BME280;66014;53.134;18.006;2023-03-21T04:20:11;100936.10;;;7.99;77.46
77086;BME280;66014;53.134;18.006;2023-03-21T04:22:37;100937.82;;;7.97;77.61
77086;BME280;66014;53.134;18.006;2023-03-21T04:25:04;100939.27;;;7.97;77.63
77086;BME280;66014;53.134;18.006;2023-03-21T04:27:30;100944.09;;;7.95;77.70
77086;BME280;66014;53.134;18.006;2023-03-21T04:29:58;100947.68;;;7.93;77.81
77086;BME280;66014;53.134;18.006;2023-03-21T04:32:26;100946.73;;;7.89;78.04
77086;BME280;66014;53.134;18.006;2023-03-21T04:34:53;100951.05;;;7.87;78.08
77086;BME280;66014;53.134;18.006;2023-03-21T04:37:23;100950.48;;;7.86;78.10
77086;BME280;66014;53.134;18.006;2023-03-21T04:39:51;100950.81;;;7.86;78.19
77086;BME280;66014;53.134;18.006;2023-03-21T04:42:18;100952.86;;;7.85;78.31
77086;BME280;66014;53.134;18.006;2023-03-21T04:44:58;100960.66;;;7.85;78.46
77086;BME280;66014;53.134;18.006;2023-03-21T04:47:55;100964.39;;;7.86;78.43
77086;BME280;66014;53.134;18.006;2023-03-21T04:50:23;100958.49;;;7.89;78.45
77086;BME280;66014;53.134;18.006;2023-03-21T04:52:50;100957.71;;;7.88;78.47
77086;BME280;66014;53.134;18.006;2023-03-21T04:55:16;100958.43;;;7.87;78.51
77086;BME280;66014;53.134;18.006;2023-03-21T04:57:47;100951.00;;;7.86;78.67
77086;BME280;66014;53.134;18.006;2023-03-21T05:00:14;100951.30;;;7.86;78.59
77086;BME280;66014;53.134;18.006;2023-03-21T05:02:42;100957.12;;;7.85;78.68
77086;BME280;66014;53.134;18.006;2023-03-21T05:05:09;100962.20;;;7.85;78.56
77086;BME280;66014;53.134;18.006;2023-03-21T05:07:38;100966.76;;;7.87;78.64
77086;BME280;66014;53.134;18.006;2023-03-21T05:10:07;100961.68;;;7.90;78.63
77086;BME280;66014;53.134;18.006;2023-03-21T05:12:34;100961.83;;;7.91;78.66
77086;BME280;66014;53.134;18.006;2023-03-21T05:15:01;100961.25;;;7.91;78.60
77086;BME280;66014;53.134;18.006;2023-03-21T05:17:27;100961.63;;;7.91;78.69
77086;BME280;66014;53.134;18.006;2023-03-21T05:19:58;100967.20;;;7.92;78.77
77086;BME280;66014;53.134;18.006;2023-03-21T05:22:25;100968.80;;;7.90;78.76
77086;BME280;66014;53.134;18.006;2023-03-21T05:24:54;100968.33;;;7.89;78.83
77086;BME280;66014;53.134;18.006;2023-03-21T05:27:22;100969.58;;;7.89;78.81
77086;BME280;66014;53.134;18.006;2023-03-21T05:30:15;100972.17;;;7.93;78.80
77086;BME280;66014;53.134;18.006;2023-03-21T05:32:42;100970.66;;;7.98;78.72
77086;BME280;66014;53.134;18.006;2023-03-21T05:35:14;100977.87;;;8.00;78.63
77086;BME280;66014;53.134;18.006;2023-03-21T05:37:41;100982.75;;;8.01;78.62
77086;BME280;66014;53.134;18.006;2023-03-21T05:40:07;100983.67;;;8.03;78.58
77086;BME280;66014;53.134;18.006;2023-03-21T05:42:35;100990.07;;;8.03;78.51
77086;BME280;66014;53.134;18.006;2023-03-21T05:45:01;100991.98;;;8.05;78.58
77086;BME280;66014;53.134;18.006;2023-03-21T05:47:28;100995.21;;;8.08;78.49
77086;BME280;66014;53.134;18.006;2023-03-21T05:49:55;100999.64;;;8.10;78.33
77086;BME280;66014;53.134;18.006;2023-03-21T05:52:22;101007.04;;;8.12;78.28
77086;BME280;66014;53.134;18.006;2023-03-21T05:54:49;101005.51;;;8.18;78.30
77086;BME280;66014;53.134;18.006;2023-03-21T05:57:16;101002.70;;;8.25;78.19
77086;BME280;66014;53.134;18.006;2023-03-21T05:59:44;100999.84;;;8.32;78.06
77086;BME280;66014;53.134;18.006;2023-03-21T06:02:11;101002.17;;;8.37;77.95
77086;BME280;66014;53.134;18.006;2023-03-21T06:04:37;101003.77;;;8.42;77.80
77086;BME280;66014;53.134;18.006;2023-03-21T06:07:04;101006.87;;;8.45;77.83
77086;BME280;66014;53.134;18.006;2023-03-21T06:09:31;101005.23;;;8.49;77.75
77086;BME280;66014;53.134;18.006;2023-03-21T06:11:59;101004.51;;;8.52;77.59
77086;BME280;66014;53.134;18.006;2023-03-21T06:14:25;101008.58;;;8.56;77.64
77086;BME280;66014;53.134;18.006;2023-03-21T06:16:52;101012.14;;;8.59;77.48
77086;BME280;66014;53.134;18.006;2023-03-21T06:19:22;101014.62;;;8.62;77.66
77086;BME280;66014;53.134;18.006;2023-03-21T06:21:48;101019.29;;;8.70;77.45
77086;BME280;66014;53.134;18.006;2023-03-21T06:24:15;101023.42;;;8.78;77.33
77086;BME280;66014;53.134;18.006;2023-03-21T06:26:44;101023.16;;;8.81;77.08
77086;BME280;66014;53.134;18.006;2023-03-21T06:29:14;101026.48;;;8.81;77.17
77086;BME280;66014;53.134;18.006;2023-03-21T06:31:40;101026.73;;;8.84;77.25
77086;BME280;66014;53.134;18.006;2023-03-21T06:34:07;101026.54;;;8.89;77.12
77086;BME280;66014;53.134;18.006;2023-03-21T06:36:36;101027.69;;;8.93;76.98
77086;BME280;66014;53.134;18.006;2023-03-21T06:39:04;101029.43;;;8.96;76.85
77086;BME280;66014;53.134;18.006;2023-03-21T06:41:32;101028.59;;;9.01;76.61
77086;BME280;66014;53.134;18.006;2023-03-21T06:43:58;101032.92;;;9.05;76.55
77086;BME280;66014;53.134;18.006;2023-03-21T06:46:25;101038.69;;;9.06;76.34
77086;BME280;66014;53.134;18.006;2023-03-21T06:48:52;101030.88;;;9.06;76.13
77086;BME280;66014;53.134;18.006;2023-03-21T06:51:19;101033.73;;;9.06;75.84
77086;BME280;66014;53.134;18.006;2023-03-21T06:53:46;101036.21;;;9.06;75.89
77086;BME280;66014;53.134;18.006;2023-03-21T06:56:27;101037.46;;;9.09;75.91
77086;BME280;66014;53.134;18.006;2023-03-21T06:58:54;101039.68;;;9.15;76.11
77086;BME280;66014;53.134;18.006;2023-03-21T07:01:21;101043.80;;;9.20;75.93
77086;BME280;66014;53.134;18.006;2023-03-21T07:03:47;101047.40;;;9.24;75.81
77086;BME280;66014;53.134;18.006;2023-03-21T07:06:14;101050.07;;;9.26;75.50
77086;BME280;66014;53.134;18.006;2023-03-21T07:08:42;101053.55;;;9.25;75.60
77086;BME280;66014;53.134;18.006;2023-03-21T07:11:08;101054.34;;;9.24;75.65
77086;BME280;66014;53.134;18.006;2023-03-21T07:13:36;101056.64;;;9.26;75.51
77086;BME280;66014;53.134;18.006;2023-03-21T07:16:02;101057.48;;;9.28;75.39
77086;BME280;66014;53.134;18.006;2023-03-21T07:18:30;101062.84;;;9.31;75.21
77086;BME280;66014;53.134;18.006;2023-03-21T07:20:56;101063.91;;;9.34;75.02
77086;BME280;66014;53.134;18.006;2023-03-21T07:23:24;101060.90;;;9.34;75.03
77086;BME280;66014;53.134;18.006;2023-03-21T07:25:52;101065.65;;;9.36;75.03
77086;BME280;66014;53.134;18.006;2023-03-21T07:28:20;101067.90;;;9.40;75.05
77086;BME280;66014;53.134;18.006;2023-03-21T07:30:52;101070.79;;;9.46;74.80
77086;BME280;66014;53.134;18.006;2023-03-21T07:33:19;101070.83;;;9.57;74.60
77086;BME280;66014;53.134;18.006;2023-03-21T07:35:46;101076.42;;;9.70;74.57
77086;BME280;66014;53.134;18.006;2023-03-21T07:38:12;101075.81;;;9.77;74.53
77086;BME280;66014;53.134;18.006;2023-03-21T07:40:43;101078.63;;;9.84;74.42
77086;BME280;66014;53.134;18.006;2023-03-21T07:43:09;101076.17;;;9.88;73.82
77086;BME280;66014;53.134;18.006;2023-03-21T07:45:36;101073.63;;;9.89;73.36
77086;BME280;66014;53.134;18.006;2023-03-21T07:48:03;101078.10;;;9.95;73.35
77086;BME280;66014;53.134;18.006;2023-03-21T07:50:29;101076.65;;;10.00;73.07
77086;BME280;66014;53.134;18.006;2023-03-21T07:52:56;101080.69;;;10.04;72.92
77086;BME280;66014;53.134;18.006;2023-03-21T07:55:23;101079.65;;;10.07;72.86
77086;BME280;66014;53.134;18.006;2023-03-21T07:57:50;101082.48;;;10.10;72.73
77086;BME280;66014;53.134;18.006;2023-03-21T08:00:19;101085.11;;;10.12;72.53
77086;BME280;66014;53.134;18.006;2023-03-21T08:02:53;101086.27;;;10.10;72.03
77086;BME280;66014;53.134;18.006;2023-03-21T08:05:23;101089.03;;;10.11;72.12
77086;BME280;66014;53.134;18.006;2023-03-21T08:07:50;101090.54;;;10.15;72.17
77086;BME280;66014;53.134;18.006;2023-03-21T08:10:19;101086.42;;;10.20;72.09
77086;BME280;66014;53.134;18.006;2023-03-21T08:12:48;101087.09;;;10.30;72.03
77086;BME280;66014;53.134;18.006;2023-03-21T08:15:21;101088.00;;;10.41;71.97
77086;BME280;66014;53.134;18.006;2023-03-21T08:17:47;101088.67;;;10.54;71.62
77086;BME280;66014;53.134;18.006;2023-03-21T08:20:16;101096.02;;;10.66;71.51
77086;BME280;66014;53.134;18.006;2023-03-21T08:22:48;101095.19;;;10.75;71.04
77086;BME280;66014;53.134;18.006;2023-03-21T08:25:18;101094.79;;;10.82;70.88
77086;BME280;66014;53.134;18.006;2023-03-21T08:27:51;101099.14;;;10.92;70.80
77086;BME280;66014;53.134;18.006;2023-03-21T08:30:21;101103.44;;;10.99;70.77
77086;BME280;66014;53.134;18.006;2023-03-21T08:32:49;101106.40;;;11.05;70.58
77086;BME280;66014;53.134;18.006;2023-03-21T08:35:20;101111.11;;;11.01;70.02
77086;BME280;66014;53.134;18.006;2023-03-21T08:37:48;101113.05;;;10.92;70.05
77086;BME280;66014;53.134;18.006;2023-03-21T08:40:20;101120.98;;;10.88;70.12
77086;BME280;66014;53.134;18.006;2023-03-21T08:42:46;101122.45;;;10.87;69.91
77086;BME280;66014;53.134;18.006;2023-03-21T08:45:14;101122.15;;;10.90;69.45
77086;BME280;66014;53.134;18.006;2023-03-21T08:47:41;101122.11;;;10.97;68.57
77086;BME280;66014;53.134;18.006;2023-03-21T08:50:12;101125.52;;;11.04;68.13
77086;BME280;66014;53.134;18.006;2023-03-21T08:52:41;101121.83;;;11.15;68.08
77086;BME280;66014;53.134;18.006;2023-03-21T08:55:08;101127.89;;;11.27;67.75
77086;BME280;66014;53.134;18.006;2023-03-21T08:57:34;101124.80;;;11.45;67.24
77086;BME280;66014;53.134;18.006;2023-03-21T09:00:05;101125.80;;;11.66;66.93
77086;BME280;66014;53.134;18.006;2023-03-21T09:02:46;101127.23;;;11.79;66.31
77086;BME280;66014;53.134;18.006;2023-03-21T09:05:14;101128.94;;;11.74;66.07
77086;BME280;66014;53.134;18.006;2023-03-21T09:07:42;101128.26;;;11.70;66.15
77086;BME280;66014;53.134;18.006;2023-03-21T09:10:12;101133.58;;;11.64;66.18
77086;BME280;66014;53.134;18.006;2023-03-21T09:12:39;101135.71;;;11.54;66.30
77086;BME280;66014;53.134;18.006;2023-03-21T09:15:10;101136.52;;;11.42;66.36
77086;BME280;66014;53.134;18.006;2023-03-21T09:17:39;101139.90;;;11.29;66.48
77086;BME280;66014;53.134;18.006;2023-03-21T09:20:11;101140.88;;;11.22;66.76
77086;BME280;66014;53.134;18.006;2023-03-21T09:22:58;101142.06;;;11.17;66.63
77086;BME280;66014;53.134;18.006;2023-03-21T09:25:25;101143.90;;;11.18;66.43
77086;BME280;66014;53.134;18.006;2023-03-21T09:27:54;101145.55;;;11.25;66.28
77086;BME280;66014;53.134;18.006;2023-03-21T09:30:21;101144.71;;;11.42;66.08
77086;BME280;66014;53.134;18.006;2023-03-21T09:32:50;101143.73;;;11.76;65.70
77086;BME280;66014;53.134;18.006;2023-03-21T09:35:19;101145.64;;;12.33;64.73
77086;BME280;66014;53.134;18.006;2023-03-21T09:37:47;101144.52;;;12.60;62.33
77086;BME280;66014;53.134;18.006;2023-03-21T09:40:20;101143.03;;;13.22;61.68
77086;BME280;66014;53.134;18.006;2023-03-21T09:43:00;101142.94;;;14.27;59.79
77086;BME280;66014;53.134;18.006;2023-03-21T09:48:34;101142.78;;;14.83;57.27
77086;BME280;66014;53.134;18.006;2023-03-21T09:51:10;101144.67;;;14.95;57.15
77086;BME280;66014;53.134;18.006;2023-03-21T09:53:41;101142.98;;;15.01;56.48
77086;BME280;66014;53.134;18.006;2023-03-21T09:56:10;101142.67;;;14.93;56.51
77086;BME280;66014;53.134;18.006;2023-03-21T09:58:53;101141.80;;;14.84;56.53
77086;BME280;66014;53.134;18.006;2023-03-21T10:01:25;101145.35;;;14.67;56.34
77086;BME280;66014;53.134;18.006;2023-03-21T10:03:56;101145.86;;;14.48;56.01
77086;BME280;66014;53.134;18.006;2023-03-21T10:06:26;101147.30;;;14.29;55.97
77086;BME280;66014;53.134;18.006;2023-03-21T10:09:12;101144.41;;;14.18;55.57
77086;BME280;66014;53.134;18.006;2023-03-21T10:11:46;101143.63;;;14.10;55.65
77086;BME280;66014;53.134;18.006;2023-03-21T10:14:20;101144.95;;;14.15;55.46
77086;BME280;66014;53.134;18.006;2023-03-21T10:16:53;101142.19;;;14.14;55.52
77086;BME280;66014;53.134;18.006;2023-03-21T10:19:22;101143.62;;;14.10;55.10
77086;BME280;66014;53.134;18.006;2023-03-21T10:21:50;101147.68;;;14.12;54.92
77086;BME280;66014;53.134;18.006;2023-03-21T10:24:23;101144.73;;;14.16;54.66
77086;BME280;66014;53.134;18.006;2023-03-21T10:26:52;101145.05;;;14.30;54.15
77086;BME280;66014;53.134;18.006;2023-03-21T10:29:23;101143.72;;;14.18;53.83
77086;BME280;66014;53.134;18.006;2023-03-21T10:31:52;101148.31;;;13.99;54.33
77086;BME280;66014;53.134;18.006;2023-03-21T10:34:48;101145.66;;;13.89;54.47
77086;BME280;66014;53.134;18.006;2023-03-21T10:37:16;101147.79;;;13.85;54.59
77086;BME280;66014;53.134;18.006;2023-03-21T10:39:48;101150.02;;;13.83;54.12
77086;BME280;66014;53.134;18.006;2023-03-21T10:42:21;101150.21;;;13.78;54.09
77086;BME280;66014;53.134;18.006;2023-03-21T10:44:51;101146.70;;;13.79;54.16
77086;BME280;66014;53.134;18.006;2023-03-21T10:47:24;101142.40;;;13.75;53.74
77086;BME280;66014;53.134;18.006;2023-03-21T10:49:52;101141.54;;;13.70;53.54
77086;BME280;66014;53.134;18.006;2023-03-21T10:52:21;101145.10;;;13.68;53.66
77086;BME280;66014;53.134;18.006;2023-03-21T10:54:48;101139.64;;;13.72;53.55
77086;BME280;66014;53.134;18.006;2023-03-21T10:57:19;101137.19;;;13.80;53.50
77086;BME280;66014;53.134;18.006;2023-03-21T11:00:01;101139.42;;;13.87;53.58
77086;BME280;66014;53.134;18.006;2023-03-21T11:02:36;101140.23;;;13.92;53.31
77086;BME280;66014;53.134;18.006;2023-03-21T11:05:06;101135.33;;;13.85;52.54
77086;BME280;66014;53.134;18.006;2023-03-21T11:07:34;101134.98;;;13.69;53.12
77086;BME280;66014;53.134;18.006;2023-03-21T11:10:14;101133.65;;;13.71;53.27
77086;BME280;66014;53.134;18.006;2023-03-21T11:12:46;101131.94;;;13.87;52.99
77086;BME280;66014;53.134;18.006;2023-03-21T11:15:30;101130.11;;;14.06;52.85
77086;BME280;66014;53.134;18.006;2023-03-21T11:18:01;101128.95;;;14.22;51.94
77086;BME280;66014;53.134;18.006;2023-03-21T11:23:18;101124.23;;;14.48;50.45
77086;BME280;66014;53.134;18.006;2023-03-21T11:25:48;101116.72;;;14.65;51.02
77086;BME280;66014;53.134;18.006;2023-03-21T11:28:18;101121.91;;;14.78;51.15
77086;BME280;66014;53.134;18.006;2023-03-21T11:31:03;101122.22;;;14.84;50.68
77086;BME280;66014;53.134;18.006;2023-03-21T11:33:36;101121.92;;;14.66;49.83
77086;BME280;66014;53.134;18.006;2023-03-21T11:36:24;101115.95;;;14.50;50.56
77086;BME280;66014;53.134;18.006;2023-03-21T11:38:56;101118.86;;;14.41;51.11
77086;BME280;66014;53.134;18.006;2023-03-21T11:41:28;101120.99;;;14.38;51.37
77086;BME280;66014;53.134;18.006;2023-03-21T11:43:56;101125.23;;;14.31;51.52
77086;BME280;66014;53.134;18.006;2023-03-21T11:46:25;101127.83;;;14.23;51.89
77086;BME280;66014;53.134;18.006;2023-03-21T11:48:54;101126.58;;;14.15;51.93
77086;BME280;66014;53.134;18.006;2023-03-21T11:51:32;101125.50;;;14.10;52.17
77086;BME280;66014;53.134;18.006;2023-03-21T11:57:29;101121.19;;;14.08;51.62
77086;BME280;66014;53.134;18.006;2023-03-21T12:00:26;101120.28;;;14.04;51.65
77086;BME280;66014;53.134;18.006;2023-03-21T12:03:17;101113.89;;;13.94;50.95
77086;BME280;66014;53.134;18.006;2023-03-21T12:05:53;101112.99;;;13.78;50.92
77086;BME280;66014;53.134;18.006;2023-03-21T12:14:20;101107.75;;;13.35;52.03
77086;BME280;66014;53.134;18.006;2023-03-21T12:16:47;101109.73;;;13.16;52.48
77086;BME280;66014;53.134;18.006;2023-03-21T12:19:54;101106.52;;;12.98;52.93
77086;BME280;66014;53.134;18.006;2023-03-21T12:25:53;101101.85;;;12.85;53.21
77086;BME280;66014;53.134;18.006;2023-03-21T12:28:50;101105.77;;;12.67;53.62
77086;BME280;66014;53.134;18.006;2023-03-21T12:36:52;101097.89;;;12.33;54.38
77086;BME280;66014;53.134;18.006;2023-03-21T12:39:35;101093.95;;;12.18;54.32
77086;BME280;66014;53.134;18.006;2023-03-21T12:44:39;101091.54;;;11.98;54.46
77086;BME280;66014;53.134;18.006;2023-03-21T12:47:14;101091.41;;;11.85;54.42
77086;BME280;66014;53.134;18.006;2023-03-21T12:49:48;101090.23;;;11.80;54.35
77086;BME280;66014;53.134;18.006;2023-03-21T12:52:26;101091.09;;;11.68;54.60
77086;BME280;66014;53.134;18.006;2023-03-21T12:55:32;101091.48;;;11.62;54.63
77086;BME280;66014;53.134;18.006;2023-03-21T12:58:08;101087.35;;;11.62;54.57
77086;BME280;66014;53.134;18.006;2023-03-21T13:00:41;101088.63;;;11.68;54.27
77086;BME280;66014;53.134;18.006;2023-03-21T13:03:20;101083.48;;;11.72;54.32
77086;BME280;66014;53.134;18.006;2023-03-21T13:05:55;101086.66;;;11.82;54.38
77086;BME280;66014;53.134;18.006;2023-03-21T13:08:36;101082.63;;;12.00;54.33
77086;BME280;66014;53.134;18.006;2023-03-21T13:11:07;101081.02;;;12.24;53.98
77086;BME280;66014;53.134;18.006;2023-03-21T13:16:29;101066.73;;;12.78;53.11
77086;BME280;66014;53.134;18.006;2023-03-21T13:19:22;101067.39;;;13.04;52.49
77086;BME280;66014;53.134;18.006;2023-03-21T13:22:03;101068.66;;;13.22;52.18
77086;BME280;66014;53.134;18.006;2023-03-21T13:24:41;101062.67;;;13.35;52.10
77086;BME280;66014;53.134;18.006;2023-03-21T13:27:32;101062.23;;;13.44;51.64
77086;BME280;66014;53.134;18.006;2023-03-21T13:32:42;101055.20;;;14.10;51.32
77086;BME280;66014;53.134;18.006;2023-03-21T13:35:21;101055.65;;;14.58;50.16
77086;BME280;66014;53.134;18.006;2023-03-21T13:38:10;101050.75;;;14.63;48.98
77086;BME280;66014;53.134;18.006;2023-03-21T13:40:44;101049.53;;;14.65;49.05
77086;BME280;66014;53.134;18.006;2023-03-21T13:43:45;101044.19;;;14.77;48.95
77086;BME280;66014;53.134;18.006;2023-03-21T13:49:01;101042.33;;;15.61;48.06
77086;BME280;66014;53.134;18.006;2023-03-21T13:56:50;101032.34;;;16.63;46.28
77086;BME280;66014;53.134;18.006;2023-03-21T14:05:02;101030.73;;;16.57;46.36
77086;BME280;66014;53.134;18.006;2023-03-21T14:07:36;101032.29;;;16.44;46.38
77086;BME280;66014;53.134;18.006;2023-03-21T14:10:17;101029.05;;;16.24;46.61
77086;BME280;66014;53.134;18.006;2023-03-21T14:12:46;101025.67;;;16.04;46.70
77086;BME280;66014;53.134;18.006;2023-03-21T14:15:19;101021.95;;;15.87;46.84
77086;BME280;66014;53.134;18.006;2023-03-21T14:17:57;101020.23;;;15.71;46.74
77086;BME280;66014;53.134;18.006;2023-03-21T14:20:29;101016.46;;;15.54;46.74